sensor_id;sensor_type;location;lat;lon;timestamp;P1;durP1;ratioP1;P2;durP2;ratioP2
36415;SDS011;22447;44.530;18.620;2024-02-26T00:01:43;228.40;;;122.72;;
36415;SDS011;22447;44.530;18.620;2024-02-26T00:04:09;259.83;;;132.00;;
36415;SDS011;22447;44.530;18.620;2024-02-26T00:06:36;255.52;;;129.27;;
36415;SDS011;22447;44.530;18.620;2024-02-26T00:09:04;325.83;;;150.23;;
36415;SDS011;22447;44.530;18.620;2024-02-26T00:11:31;371.00;;;176.25;;
36415;SDS011;22447;44.530;18.620;2024-02-26T00:13:56;360.70;;;164.48;;
36415;SDS011;22447;44.530;18.620;2024-02-26T00:16:23;469.15;;;203.35;;
36415;SDS011;22447;44.530;18.620;2024-02-26T00:18:49;436.77;;;193.30;;
36415;SDS011;22447;44.530;18.620;2024-02-26T00:21:15;321.38;;;152.10;;
36415;SDS011;22447;44.530;18.620;2024-02-26T00:23:41;355.05;;;159.00;;
36415;SDS011;22447;44.530;18.620;2024-02-26T00:26:06;322.55;;;152.48;;
36415;SDS011;22447;44.530;18.620;2024-02-26T00:28:33;376.13;;;170.18;;
36415;SDS011;22447;44.530;18.620;2024-02-26T00:30:59;369.85;;;166.48;;
36415;SDS011;22447;44.530;18.620;2024-02-26T00:33:25;333.58;;;153.40;;
36415;SDS011;22447;44.530;18.620;2024-02-26T00:35:50;350.52;;;157.85;;
36415;SDS011;22447;44.530;18.620;2024-02-26T00:38:16;336.02;;;154.80;;
36415;SDS011;22447;44.530;18.620;2024-02-26T00:40:42;413.75;;;175.65;;
36415;SDS011;22447;44.530;18.620;2024-02-26T00:43:08;487.17;;;197.63;;
36415;SDS011;22447;44.530;18.620;2024-02-26T00:45:34;415.40;;;175.35;;
36415;SDS011;22447;44.530;18.620;2024-02-26T00:47:59;449.70;;;190.23;;
36415;SDS011;22447;44.530;18.620;2024-02-26T00:50:29;416.47;;;176.97;;
36415;SDS011;22447;44.530;18.620;2024-02-26T00:52:59;402.30;;;169.70;;
36415;SDS011;22447;44.530;18.620;2024-02-26T00:55:25;429.52;;;181.85;;
36415;SDS011;22447;44.530;18.620;2024-02-26T00:57:51;381.17;;;164.35;;
36415;SDS011;22447;44.530;18.620;2024-02-26T01:00:17;393.80;;;167.80;;
36415;SDS011;22447;44.530;18.620;2024-02-26T01:02:43;326.88;;;146.23;;
36415;SDS011;22447;44.530;18.620;2024-02-26T01:05:12;342.02;;;145.77;;
36415;SDS011;22447;44.530;18.620;2024-02-26T01:07:38;427.70;;;173.65;;
36415;SDS011;22447;44.530;18.620;2024-02-26T01:10:05;352.17;;;153.23;;
36415;SDS011;22447;44.530;18.620;2024-02-26T01:12:32;405.10;;;169.80;;
36415;SDS011;22447;44.530;18.620;2024-02-26T01:14:59;359.65;;;153.18;;
36415;SDS011;22447;44.530;18.620;2024-02-26T01:17:25;335.63;;;148.32;;
36415;SDS011;22447;44.530;18.620;2024-02-26T01:19:51;353.40;;;160.90;;
36415;SDS011;22447;44.530;18.620;2024-02-26T01:22:18;430.63;;;181.88;;
36415;SDS011;22447;44.530;18.620;2024-02-26T01:24:44;515.28;;;202.55;;
36415;SDS011;22447;44.530;18.620;2024-02-26T01:27:10;422.92;;;172.68;;
36415;SDS011;22447;44.530;18.620;2024-02-26T01:29:36;354.00;;;157.88;;
36415;SDS011;22447;44.530;18.620;2024-02-26T01:32:02;270.80;;;132.75;;
36415;SDS011;22447;44.530;18.620;2024-02-26T01:34:30;357.63;;;156.40;;
36415;SDS011;22447;44.530;18.620;2024-02-26T01:36:55;407.10;;;168.85;;
36415;SDS011;22447;44.530;18.620;2024-02-26T01:39:21;504.55;;;195.27;;
36415;SDS011;22447;44.530;18.620;2024-02-26T01:41:47;382.77;;;153.98;;
36415;SDS011;22447;44.530;18.620;2024-02-26T01:44:13;298.75;;;133.02;;
36415;SDS011;22447;44.530;18.620;2024-02-26T01:46:39;299.67;;;129.90;;
36415;SDS011;22447;44.530;18.620;2024-02-26T01:49:05;269.50;;;121.53;;
36415;SDS011;22447;44.530;18.620;2024-02-26T01:51:32;269.67;;;119.50;;
36415;SDS011;22447;44.530;18.620;2024-02-26T01:53:59;212.00;;;99.47;;
36415;SDS011;22447;44.530;18.620;2024-02-26T01:56:26;202.18;;;97.22;;
36415;SDS011;22447;44.530;18.620;2024-02-26T01:58:55;199.65;;;98.57;;
36415;SDS011;22447;44.530;18.620;2024-02-26T02:01:22;277.38;;;120.25;;
36415;SDS011;22447;44.530;18.620;2024-02-26T02:03:52;238.75;;;109.15;;
36415;SDS011;22447;44.530;18.620;2024-02-26T02:06:19;316.60;;;128.98;;
36415;SDS011;22447;44.530;18.620;2024-02-26T02:08:46;216.57;;;101.47;;
36415;SDS011;22447;44.530;18.620;2024-02-26T02:11:12;182.98;;;91.18;;
36415;SDS011;22447;44.530;18.620;2024-02-26T02:13:40;194.73;;;91.57;;
36415;SDS011;22447;44.530;18.620;2024-02-26T02:16:06;157.35;;;83.95;;
36415;SDS011;22447;44.530;18.620;2024-02-26T02:18:33;152.55;;;79.95;;
36415;SDS011;22447;44.530;18.620;2024-02-26T02:21:01;148.52;;;76.72;;
36415;SDS011;22447;44.530;18.620;2024-02-26T02:23:28;284.77;;;109.38;;
36415;SDS011;22447;44.530;18.620;2024-02-26T02:25:54;244.57;;;99.95;;
36415;SDS011;22447;44.530;18.620;2024-02-26T02:28:21;308.73;;;116.60;;
36415;SDS011;22447;44.530;18.620;2024-02-26T02:30:48;392.42;;;128.70;;
36415;SDS011;22447;44.530;18.620;2024-02-26T02:33:14;246.48;;;107.10;;
36415;SDS011;22447;44.530;18.620;2024-02-26T02:35:41;269.92;;;102.60;;
36415;SDS011;22447;44.530;18.620;2024-02-26T02:38:07;179.15;;;84.60;;
36415;SDS011;22447;44.530;18.620;2024-02-26T02:40:32;176.82;;;84.00;;
36415;SDS011;22447;44.530;18.620;2024-02-26T02:43:01;206.40;;;91.90;;
36415;SDS011;22447;44.530;18.620;2024-02-26T02:45:27;203.85;;;90.80;;
36415;SDS011;22447;44.530;18.620;2024-02-26T02:47:53;237.45;;;98.53;;
36415;SDS011;22447;44.530;18.620;2024-02-26T02:50:19;216.52;;;96.93;;
36415;SDS011;22447;44.530;18.620;2024-02-26T02:52:45;271.02;;;106.38;;
36415;SDS011;22447;44.530;18.620;2024-02-26T02:55:11;198.75;;;91.13;;
36415;SDS011;22447;44.530;18.620;2024-02-26T02:57:37;185.70;;;90.32;;
36415;SDS011;22447;44.530;18.620;2024-02-26T03:00:08;433.10;;;130.17;;
36415;SDS011;22447;44.530;18.620;2024-02-26T03:02:35;499.30;;;141.70;;
36415;SDS011;22447;44.530;18.620;2024-02-26T03:05:01;749.40;;;170.38;;
36415;SDS011;22447;44.530;18.620;2024-02-26T03:07:30;304.33;;;121.15;;
36415;SDS011;22447;44.530;18.620;2024-02-26T03:09:56;814.45;;;180.77;;
36415;SDS011;22447;44.530;18.620;2024-02-26T03:12:22;396.58;;;124.57;;
36415;SDS011;22447;44.530;18.620;2024-02-26T03:14:48;646.53;;;167.60;;
36415;SDS011;22447;44.530;18.620;2024-02-26T03:17:14;757.17;;;177.55;;
36415;SDS011;22447;44.530;18.620;2024-02-26T03:19:40;840.75;;;191.40;;
36415;SDS011;22447;44.530;18.620;2024-02-26T03:22:06;500.25;;;138.45;;
36415;SDS011;22447;44.530;18.620;2024-02-26T03:24:32;631.38;;;163.70;;
36415;SDS011;22447;44.530;18.620;2024-02-26T03:26:58;507.92;;;154.93;;
36415;SDS011;22447;44.530;18.620;2024-02-26T03:29:24;460.70;;;139.55;;
36415;SDS011;22447;44.530;18.620;2024-02-26T03:31:50;704.75;;;162.75;;
36415;SDS011;22447;44.530;18.620;2024-02-26T03:34:16;558.88;;;143.52;;
36415;SDS011;22447;44.530;18.620;2024-02-26T03:36:43;287.10;;;108.15;;
36415;SDS011;22447;44.530;18.620;2024-02-26T03:39:09;402.63;;;126.32;;
36415;SDS011;22447;44.530;18.620;2024-02-26T03:41:36;257.52;;;99.60;;
36415;SDS011;22447;44.530;18.620;2024-02-26T03:44:02;228.85;;;96.90;;
36415;SDS011;22447;44.530;18.620;2024-02-26T03:46:28;188.90;;;84.60;;
36415;SDS011;22447;44.530;18.620;2024-02-26T03:48:54;172.35;;;74.95;;
36415;SDS011;22447;44.530;18.620;2024-02-26T03:51:19;217.27;;;83.50;;
36415;SDS011;22447;44.530;18.620;2024-02-26T03:53:45;141.00;;;65.90;;
36415;SDS011;22447;44.530;18.620;2024-02-26T03:56:11;147.00;;;66.35;;
36415;SDS011;22447;44.530;18.620;2024-02-26T03:58:40;139.82;;;65.22;;
36415;SDS011;22447;44.530;18.620;2024-02-26T04:01:07;136.30;;;67.20;;
36415;SDS011;22447;44.530;18.620;2024-02-26T04:03:34;151.35;;;66.05;;
36415;SDS011;22447;44.530;18.620;2024-02-26T04:06:00;159.80;;;64.80;;
36415;SDS011;22447;44.530;18.620;2024-02-26T04:08:26;207.23;;;74.15;;
36415;SDS011;22447;44.530;18.620;2024-02-26T04:10:52;161.10;;;72.63;;
36415;SDS011;22447;44.530;18.620;2024-02-26T04:13:18;186.02;;;75.18;;
36415;SDS011;22447;44.530;18.620;2024-02-26T04:15:44;155.93;;;69.68;;
36415;SDS011;22447;44.530;18.620;2024-02-26T04:18:12;263.35;;;83.75;;
36415;SDS011;22447;44.530;18.620;2024-02-26T04:20:38;170.55;;;72.18;;
36415;SDS011;22447;44.530;18.620;2024-02-26T04:23:03;210.75;;;77.85;;
36415;SDS011;22447;44.530;18.620;2024-02-26T04:25:29;170.00;;;77.32;;
36415;SDS011;22447;44.530;18.620;2024-02-26T04:27:55;150.55;;;68.78;;
36415;SDS011;22447;44.530;18.620;2024-02-26T04:30:21;194.23;;;77.55;;
36415;SDS011;22447;44.530;18.620;2024-02-26T04:32:47;150.13;;;72.78;;
36415;SDS011;22447;44.530;18.620;2024-02-26T04:35:12;175.27;;;78.18;;
36415;SDS011;22447;44.530;18.620;2024-02-26T04:37:38;176.65;;;79.90;;
36415;SDS011;22447;44.530;18.620;2024-02-26T04:40:04;335.10;;;81.78;;
36415;SDS011;22447;44.530;18.620;2024-02-26T04:42:31;212.52;;;73.72;;
36415;SDS011;22447;44.530;18.620;2024-02-26T04:44:57;219.88;;;67.03;;
36415;SDS011;22447;44.530;18.620;2024-02-26T04:47:22;269.20;;;76.70;;
36415;SDS011;22447;44.530;18.620;2024-02-26T04:49:51;325.45;;;91.15;;
36415;SDS011;22447;44.530;18.620;2024-02-26T04:52:18;112.35;;;54.47;;
36415;SDS011;22447;44.530;18.620;2024-02-26T04:54:44;130.00;;;55.58;;
36415;SDS011;22447;44.530;18.620;2024-02-26T04:57:10;162.23;;;62.67;;
36415;SDS011;22447;44.530;18.620;2024-02-26T04:59:35;400.40;;;83.50;;
36415;SDS011;22447;44.530;18.620;2024-02-26T05:02:02;203.15;;;68.97;;
36415;SDS011;22447;44.530;18.620;2024-02-26T05:04:28;618.72;;;104.70;;
36415;SDS011;22447;44.530;18.620;2024-02-26T05:06:53;248.68;;;75.25;;
36415;SDS011;22447;44.530;18.620;2024-02-26T05:09:19;202.50;;;68.57;;
36415;SDS011;22447;44.530;18.620;2024-02-26T05:11:45;303.15;;;75.70;;
36415;SDS011;22447;44.530;18.620;2024-02-26T05:14:11;244.13;;;69.30;;
36415;SDS011;22447;44.530;18.620;2024-02-26T05:16:37;180.95;;;65.90;;
36415;SDS011;22447;44.530;18.620;2024-02-26T05:19:03;131.43;;;60.17;;
36415;SDS011;22447;44.530;18.620;2024-02-26T05:21:29;274.92;;;71.43;;
36415;SDS011;22447;44.530;18.620;2024-02-26T05:23:55;164.38;;;60.72;;
36415;SDS011;22447;44.530;18.620;2024-02-26T05:26:21;452.73;;;90.90;;
36415;SDS011;22447;44.530;18.620;2024-02-26T05:28:48;303.33;;;80.13;;
36415;SDS011;22447;44.530;18.620;2024-02-26T05:31:14;182.32;;;59.35;;
36415;SDS011;22447;44.530;18.620;2024-02-26T05:33:40;123.43;;;56.08;;
36415;SDS011;22447;44.530;18.620;2024-02-26T05:36:06;140.20;;;57.55;;
36415;SDS011;22447;44.530;18.620;2024-02-26T05:38:32;249.27;;;62.38;;
36415;SDS011;22447;44.530;18.620;2024-02-26T05:40:58;143.23;;;55.25;;
36415;SDS011;22447;44.530;18.620;2024-02-26T05:43:25;229.07;;;61.90;;
36415;SDS011;22447;44.530;18.620;2024-02-26T05:45:51;138.98;;;49.35;;
36415;SDS011;22447;44.530;18.620;2024-02-26T05:48:17;166.32;;;53.50;;
36415;SDS011;22447;44.530;18.620;2024-02-26T05:50:44;120.88;;;49.90;;
36415;SDS011;22447;44.530;18.620;2024-02-26T05:53:11;200.48;;;58.10;;
36415;SDS011;22447;44.530;18.620;2024-02-26T05:55:37;127.55;;;52.38;;
36415;SDS011;22447;44.530;18.620;2024-02-26T05:58:03;124.75;;;57.88;;
36415;SDS011;22447;44.530;18.620;2024-02-26T06:00:29;164.27;;;59.78;;
36415;SDS011;22447;44.530;18.620;2024-02-26T06:02:55;150.23;;;56.25;;
36415;SDS011;22447;44.530;18.620;2024-02-26T06:05:21;155.73;;;55.65;;
36415;SDS011;22447;44.530;18.620;2024-02-26T06:07:46;158.05;;;57.53;;
36415;SDS011;22447;44.530;18.620;2024-02-26T06:10:12;156.23;;;54.15;;
36415;SDS011;22447;44.530;18.620;2024-02-26T06:12:41;134.13;;;52.70;;
36415;SDS011;22447;44.530;18.620;2024-02-26T06:15:07;174.13;;;58.05;;
36415;SDS011;22447;44.530;18.620;2024-02-26T06:17:34;140.52;;;51.08;;
36415;SDS011;22447;44.530;18.620;2024-02-26T06:20:00;149.30;;;52.00;;
36415;SDS011;22447;44.530;18.620;2024-02-26T06:22:26;206.20;;;63.80;;
36415;SDS011;22447;44.530;18.620;2024-02-26T06:24:52;151.80;;;57.28;;
36415;SDS011;22447;44.530;18.620;2024-02-26T06:27:18;271.10;;;71.53;;
36415;SDS011;22447;44.530;18.620;2024-02-26T06:29:44;434.65;;;93.72;;
36415;SDS011;22447;44.530;18.620;2024-02-26T06:32:10;160.45;;;64.22;;
36415;SDS011;22447;44.530;18.620;2024-02-26T06:34:35;195.48;;;68.35;;
36415;SDS011;22447;44.530;18.620;2024-02-26T06:37:03;238.48;;;79.13;;
36415;SDS011;22447;44.530;18.620;2024-02-26T06:39:29;237.15;;;82.70;;
36415;SDS011;22447;44.530;18.620;2024-02-26T06:41:55;223.85;;;84.38;;
36415;SDS011;22447;44.530;18.620;2024-02-26T06:44:25;337.65;;;94.07;;
36415;SDS011;22447;44.530;18.620;2024-02-26T06:46:57;247.63;;;88.63;;
36415;SDS011;22447;44.530;18.620;2024-02-26T06:49:24;391.52;;;107.50;;
36415;SDS011;22447;44.530;18.620;2024-02-26T06:51:50;298.58;;;99.35;;
36415;SDS011;22447;44.530;18.620;2024-02-26T06:54:16;197.02;;;83.68;;
36415;SDS011;22447;44.530;18.620;2024-02-26T06:56:41;208.32;;;84.15;;
36415;SDS011;22447;44.530;18.620;2024-02-26T06:59:07;208.95;;;85.47;;
36415;SDS011;22447;44.530;18.620;2024-02-26T07:01:33;239.27;;;93.68;;
36415;SDS011;22447;44.530;18.620;2024-02-26T07:03:59;209.25;;;90.78;;
36415;SDS011;22447;44.530;18.620;2024-02-26T07:06:26;198.25;;;90.15;;
36415;SDS011;22447;44.530;18.620;2024-02-26T07:08:52;292.38;;;91.25;;
36415;SDS011;22447;44.530;18.620;2024-02-26T07:11:19;214.38;;;81.68;;
36415;SDS011;22447;44.530;18.620;2024-02-26T07:13:45;350.35;;;100.10;;
36415;SDS011;22447;44.530;18.620;2024-02-26T07:16:11;220.90;;;87.22;;
36415;SDS011;22447;44.530;18.620;2024-02-26T07:18:38;284.00;;;93.80;;
36415;SDS011;22447;44.530;18.620;2024-02-26T07:21:06;300.90;;;91.75;;
36415;SDS011;22447;44.530;18.620;2024-02-26T07:23:31;180.40;;;77.25;;
36415;SDS011;22447;44.530;18.620;2024-02-26T07:25:57;183.80;;;81.55;;
36415;SDS011;22447;44.530;18.620;2024-02-26T07:28:24;180.23;;;81.82;;
36415;SDS011;22447;44.530;18.620;2024-02-26T07:30:50;195.80;;;81.45;;
36415;SDS011;22447;44.530;18.620;2024-02-26T07:33:16;223.50;;;76.63;;
36415;SDS011;22447;44.530;18.620;2024-02-26T07:35:42;138.02;;;63.30;;
36415;SDS011;22447;44.530;18.620;2024-02-26T07:38:07;145.90;;;64.97;;
36415;SDS011;22447;44.530;18.620;2024-02-26T07:40:33;136.38;;;61.00;;
36415;SDS011;22447;44.530;18.620;2024-02-26T07:42:59;141.38;;;62.13;;
36415;SDS011;22447;44.530;18.620;2024-02-26T07:45:25;124.82;;;58.83;;
36415;SDS011;22447;44.530;18.620;2024-02-26T07:47:51;154.50;;;59.60;;
36415;SDS011;22447;44.530;18.620;2024-02-26T07:50:17;118.68;;;56.35;;
36415;SDS011;22447;44.530;18.620;2024-02-26T07:52:43;117.90;;;59.13;;
36415;SDS011;22447;44.530;18.620;2024-02-26T07:55:09;209.90;;;70.72;;
36415;SDS011;22447;44.530;18.620;2024-02-26T07:57:35;137.27;;;64.53;;
36415;SDS011;22447;44.530;18.620;2024-02-26T08:00:04;159.95;;;66.82;;
36415;SDS011;22447;44.530;18.620;2024-02-26T08:02:34;149.93;;;67.40;;
36415;SDS011;22447;44.530;18.620;2024-02-26T08:05:01;139.40;;;64.40;;
36415;SDS011;22447;44.530;18.620;2024-02-26T08:07:26;166.48;;;68.50;;
36415;SDS011;22447;44.530;18.620;2024-02-26T08:09:53;141.38;;;65.30;;
36415;SDS011;22447;44.530;18.620;2024-02-26T08:12:19;140.50;;;64.38;;
36415;SDS011;22447;44.530;18.620;2024-02-26T08:14:45;174.40;;;71.30;;
36415;SDS011;22447;44.530;18.620;2024-02-26T08:17:11;224.32;;;79.47;;
36415;SDS011;22447;44.530;18.620;2024-02-26T08:19:37;169.13;;;72.55;;
36415;SDS011;22447;44.530;18.620;2024-02-26T08:22:03;188.45;;;75.50;;
36415;SDS011;22447;44.530;18.620;2024-02-26T08:24:29;163.45;;;73.85;;
36415;SDS011;22447;44.530;18.620;2024-02-26T08:26:55;156.20;;;69.18;;
36415;SDS011;22447;44.530;18.620;2024-02-26T08:29:21;151.52;;;69.53;;
36415;SDS011;22447;44.530;18.620;2024-02-26T08:31:47;147.35;;;64.93;;
36415;SDS011;22447;44.530;18.620;2024-02-26T08:34:14;146.35;;;66.65;;
36415;SDS011;22447;44.530;18.620;2024-02-26T08:36:39;167.63;;;70.65;;
36415;SDS011;22447;44.530;18.620;2024-02-26T08:39:05;146.10;;;69.43;;
36415;SDS011;22447;44.530;18.620;2024-02-26T08:41:32;171.48;;;70.05;;
36415;SDS011;22447;44.530;18.620;2024-02-26T08:43:59;158.95;;;72.35;;
36415;SDS011;22447;44.530;18.620;2024-02-26T08:46:25;183.23;;;73.80;;
36415;SDS011;22447;44.530;18.620;2024-02-26T08:48:51;150.80;;;67.18;;
36415;SDS011;22447;44.530;18.620;2024-02-26T08:51:17;141.90;;;66.32;;
36415;SDS011;22447;44.530;18.620;2024-02-26T08:53:43;149.45;;;68.50;;
36415;SDS011;22447;44.530;18.620;2024-02-26T08:56:09;137.45;;;66.85;;
36415;SDS011;22447;44.530;18.620;2024-02-26T08:58:36;154.23;;;65.13;;
36415;SDS011;22447;44.530;18.620;2024-02-26T09:01:02;128.35;;;63.60;;
36415;SDS011;22447;44.530;18.620;2024-02-26T09:03:28;127.05;;;60.60;;
36415;SDS011;22447;44.530;18.620;2024-02-26T09:05:54;98.63;;;49.83;;
36415;SDS011;22447;44.530;18.620;2024-02-26T09:08:20;103.53;;;50.78;;
36415;SDS011;22447;44.530;18.620;2024-02-26T09:10:47;105.05;;;51.25;;
36415;SDS011;22447;44.530;18.620;2024-02-26T09:13:13;122.72;;;55.10;;
36415;SDS011;22447;44.530;18.620;2024-02-26T09:15:38;118.65;;;58.63;;
36415;SDS011;22447;44.530;18.620;2024-02-26T09:18:04;122.85;;;56.47;;
36415;SDS011;22447;44.530;18.620;2024-02-26T09:20:30;106.85;;;56.30;;
36415;SDS011;22447;44.530;18.620;2024-02-26T09:22:56;111.07;;;55.13;;
36415;SDS011;22447;44.530;18.620;2024-02-26T09:25:22;97.93;;;53.80;;
36415;SDS011;22447;44.530;18.620;2024-02-26T09:27:48;106.97;;;53.20;;
36415;SDS011;22447;44.530;18.620;2024-02-26T09:30:14;91.35;;;51.63;;
36415;SDS011;22447;44.530;18.620;2024-02-26T09:32:39;83.82;;;47.97;;
36415;SDS011;22447;44.530;18.620;2024-02-26T09:35:06;99.72;;;52.75;;
36415;SDS011;22447;44.530;18.620;2024-02-26T09:37:32;103.43;;;51.63;;
36415;SDS011;22447;44.530;18.620;2024-02-26T09:39:59;98.55;;;49.58;;
36415;SDS011;22447;44.530;18.620;2024-02-26T09:42:25;104.80;;;50.63;;
36415;SDS011;22447;44.530;18.620;2024-02-26T09:44:55;103.28;;;52.92;;
36415;SDS011;22447;44.530;18.620;2024-02-26T09:47:24;107.82;;;50.05;;
36415;SDS011;22447;44.530;18.620;2024-02-26T09:49:52;98.68;;;51.85;;
36415;SDS011;22447;44.530;18.620;2024-02-26T09:52:20;88.13;;;49.38;;
36415;SDS011;22447;44.530;18.620;2024-02-26T09:54:47;101.40;;;50.90;;
36415;SDS011;22447;44.530;18.620;2024-02-26T09:57:13;100.78;;;51.75;;
36415;SDS011;22447;44.530;18.620;2024-02-26T09:59:42;93.93;;;50.50;;
36415;SDS011;22447;44.530;18.620;2024-02-26T10:02:09;114.97;;;55.38;;
36415;SDS011;22447;44.530;18.620;2024-02-26T10:04:38;99.97;;;51.40;;
36415;SDS011;22447;44.530;18.620;2024-02-26T10:07:06;96.30;;;49.38;;
36415;SDS011;22447;44.530;18.620;2024-02-26T10:09:35;100.85;;;53.25;;
36415;SDS011;22447;44.530;18.620;2024-02-26T10:12:02;105.63;;;52.78;;
36415;SDS011;22447;44.530;18.620;2024-02-26T10:14:30;109.38;;;51.40;;
36415;SDS011;22447;44.530;18.620;2024-02-26T10:16:56;101.45;;;51.20;;
36415;SDS011;22447;44.530;18.620;2024-02-26T10:19:28;115.63;;;53.53;;
36415;SDS011;22447;44.530;18.620;2024-02-26T10:21:59;90.97;;;50.63;;
36415;SDS011;22447;44.530;18.620;2024-02-26T10:26:52;100.82;;;51.65;;
36415;SDS011;22447;44.530;18.620;2024-02-26T10:29:19;115.60;;;53.35;;
36415;SDS011;22447;44.530;18.620;2024-02-26T10:31:46;107.15;;;54.10;;
36415;SDS011;22447;44.530;18.620;2024-02-26T10:34:12;104.93;;;50.83;;
36415;SDS011;22447;44.530;18.620;2024-02-26T10:36:39;103.80;;;49.60;;
36415;SDS011;22447;44.530;18.620;2024-02-26T10:39:09;86.47;;;48.67;;
36415;SDS011;22447;44.530;18.620;2024-02-26T10:41:39;83.20;;;47.27;;
36415;SDS011;22447;44.530;18.620;2024-02-26T10:44:08;93.18;;;48.97;;
36415;SDS011;22447;44.530;18.620;2024-02-26T10:46:36;90.47;;;46.53;;
36415;SDS011;22447;44.530;18.620;2024-02-26T10:49:02;99.32;;;47.90;;
36415;SDS011;22447;44.530;18.620;2024-02-26T10:51:31;78.55;;;44.47;;
36415;SDS011;22447;44.530;18.620;2024-02-26T10:53:59;84.22;;;45.83;;
36415;SDS011;22447;44.530;18.620;2024-02-26T10:56:29;76.40;;;43.25;;
36415;SDS011;22447;44.530;18.620;2024-02-26T10:58:59;78.75;;;42.10;;
36415;SDS011;22447;44.530;18.620;2024-02-26T11:01:27;75.72;;;40.58;;
36415;SDS011;22447;44.530;18.620;2024-02-26T11:06:23;59.60;;;36.00;;
36415;SDS011;22447;44.530;18.620;2024-02-26T11:08:49;71.32;;;34.85;;
36415;SDS011;22447;44.530;18.620;2024-02-26T11:11:19;52.67;;;29.90;;
36415;SDS011;22447;44.530;18.620;2024-02-26T11:13:46;57.80;;;31.73;;
36415;SDS011;22447;44.530;18.620;2024-02-26T11:18:43;44.28;;;23.73;;
36415;SDS011;22447;44.530;18.620;2024-02-26T11:21:13;37.67;;;16.67;;
36415;SDS011;22447;44.530;18.620;2024-02-26T11:23:47;27.70;;;12.13;;
36415;SDS011;22447;44.530;18.620;2024-02-26T11:26:13;28.45;;;12.50;;
36415;SDS011;22447;44.530;18.620;2024-02-26T11:28:41;17.27;;;9.95;;
36415;SDS011;22447;44.530;18.620;2024-02-26T11:31:09;22.67;;;8.98;;
36415;SDS011;22447;44.530;18.620;2024-02-26T11:33:36;23.88;;;9.15;;
36415;SDS011;22447;44.530;18.620;2024-02-26T11:36:11;20.35;;;10.60;;
36415;SDS011;22447;44.530;18.620;2024-02-26T11:38:39;35.40;;;13.07;;
36415;SDS011;22447;44.530;18.620;2024-02-26T11:41:05;31.80;;;13.00;;
36415;SDS011;22447;44.530;18.620;2024-02-26T11:46:29;36.60;;;12.65;;
36415;SDS011;22447;44.530;18.620;2024-02-26T11:48:57;23.92;;;11.45;;
36415;SDS011;22447;44.530;18.620;2024-02-26T11:51:25;16.02;;;8.10;;
36415;SDS011;22447;44.530;18.620;2024-02-26T11:54:00;25.85;;;9.98;;
36415;SDS011;22447;44.530;18.620;2024-02-26T11:56:26;21.83;;;9.32;;
36415;SDS011;22447;44.530;18.620;2024-02-26T11:59:37;14.35;;;8.13;;
36415;SDS011;22447;44.530;18.620;2024-02-26T12:02:02;19.17;;;9.27;;
36415;SDS011;22447;44.530;18.620;2024-02-26T12:04:29;23.02;;;12.55;;
36415;SDS011;22447;44.530;18.620;2024-02-26T12:06:56;30.42;;;13.63;;
36415;SDS011;22447;44.530;18.620;2024-02-26T12:09:38;49.67;;;22.23;;
36415;SDS011;22447;44.530;18.620;2024-02-26T12:12:05;39.95;;;16.05;;
36415;SDS011;22447;44.530;18.620;2024-02-26T12:14:33;51.38;;;21.60;;
36415;SDS011;22447;44.530;18.620;2024-02-26T12:17:19;40.63;;;17.73;;
36415;SDS011;22447;44.530;18.620;2024-02-26T12:19:49;50.08;;;24.88;;
36415;SDS011;22447;44.530;18.620;2024-02-26T12:22:16;22.95;;;11.32;;
36415;SDS011;22447;44.530;18.620;2024-02-26T12:24:43;24.98;;;11.35;;
36415;SDS011;22447;44.530;18.620;2024-02-26T12:27:09;24.88;;;11.57;;
36415;SDS011;22447;44.530;18.620;2024-02-26T12:29:34;29.80;;;11.38;;
36415;SDS011;22447;44.530;18.620;2024-02-26T12:32:00;21.65;;;9.40;;
36415;SDS011;22447;44.530;18.620;2024-02-26T12:34:28;19.15;;;9.13;;
36415;SDS011;22447;44.530;18.620;2024-02-26T12:36:54;19.08;;;9.38;;
36415;SDS011;22447;44.530;18.620;2024-02-26T12:39:20;24.77;;;10.32;;
36415;SDS011;22447;44.530;18.620;2024-02-26T12:41:46;28.98;;;11.52;;
36415;SDS011;22447;44.530;18.620;2024-02-26T12:44:16;28.67;;;13.18;;
36415;SDS011;22447;44.530;18.620;2024-02-26T12:46:42;26.38;;;12.18;;
36415;SDS011;22447;44.530;18.620;2024-02-26T12:49:08;30.67;;;11.75;;
36415;SDS011;22447;44.530;18.620;2024-02-26T12:51:39;33.47;;;11.57;;
36415;SDS011;22447;44.530;18.620;2024-02-26T12:54:06;19.73;;;9.05;;
36415;SDS011;22447;44.530;18.620;2024-02-26T12:56:34;21.85;;;9.35;;
36415;SDS011;22447;44.530;18.620;2024-02-26T12:59:00;20.48;;;8.20;;
36415;SDS011;22447;44.530;18.620;2024-02-26T13:01:27;18.38;;;8.18;;
36415;SDS011;22447;44.530;18.620;2024-02-26T13:03:54;18.02;;;7.35;;
36415;SDS011;22447;44.530;18.620;2024-02-26T13:06:20;23.73;;;8.32;;
36415;SDS011;22447;44.530;18.620;2024-02-26T13:08:47;18.00;;;8.68;;
36415;SDS011;22447;44.530;18.620;2024-02-26T13:11:13;24.80;;;9.23;;
36415;SDS011;22447;44.530;18.620;2024-02-26T13:13:39;24.00;;;9.57;;
36415;SDS011;22447;44.530;18.620;2024-02-26T13:16:06;34.83;;;10.93;;
36415;SDS011;22447;44.530;18.620;2024-02-26T13:18:40;32.15;;;11.05;;
36415;SDS011;22447;44.530;18.620;2024-02-26T13:21:10;28.05;;;10.70;;
36415;SDS011;22447;44.530;18.620;2024-02-26T13:23:40;29.52;;;11.93;;
36415;SDS011;22447;44.530;18.620;2024-02-26T13:26:07;31.38;;;11.85;;
36415;SDS011;22447;44.530;18.620;2024-02-26T13:28:33;52.40;;;14.82;;
36415;SDS011;22447;44.530;18.620;2024-02-26T13:31:00;36.47;;;12.48;;
36415;SDS011;22447;44.530;18.620;2024-02-26T13:33:28;33.22;;;11.70;;
36415;SDS011;22447;44.530;18.620;2024-02-26T13:35:55;23.23;;;10.90;;
36415;SDS011;22447;44.530;18.620;2024-02-26T13:38:21;20.65;;;9.90;;
36415;SDS011;22447;44.530;18.620;2024-02-26T13:40:47;21.92;;;9.77;;
36415;SDS011;22447;44.530;18.620;2024-02-26T13:43:14;39.42;;;12.85;;
36415;SDS011;22447;44.530;18.620;2024-02-26T13:45:40;22.00;;;9.60;;
36415;SDS011;22447;44.530;18.620;2024-02-26T13:48:06;22.92;;;9.70;;
36415;SDS011;22447;44.530;18.620;2024-02-26T13:50:35;34.53;;;11.75;;
36415;SDS011;22447;44.530;18.620;2024-02-26T13:53:01;32.10;;;10.65;;
36415;SDS011;22447;44.530;18.620;2024-02-26T13:55:27;22.45;;;9.95;;
36415;SDS011;22447;44.530;18.620;2024-02-26T13:57:56;18.17;;;8.07;;
36415;SDS011;22447;44.530;18.620;2024-02-26T14:00:22;35.75;;;12.43;;
36415;SDS011;22447;44.530;18.620;2024-02-26T14:02:49;26.83;;;10.40;;
36415;SDS011;22447;44.530;18.620;2024-02-26T14:05:15;23.45;;;9.63;;
36415;SDS011;22447;44.530;18.620;2024-02-26T14:07:42;41.35;;;12.48;;